Time;durP1;ratioP1;P1;durP2;ratioP2;P2;SDS_P1;SDS_P2;PMS_P1;PMS_P2;Temp;Humidity;BMP_temperature;BMP_pressure;BME280_temperature;BME280_humidity;BME280_pressure;Samples;Min_cycle;Max_cycle;Signal;HPM_P1;HPM_P2
2022/04/27 00:00:36;;;;;;;82.07;10.23;;;;;;;9.80;100.00;98212.75;5000094;28;20399;-55
2022/04/27 00:03:03;;;;;;;68.72;11.20;;;;;;;9.77;100.00;98207.66;5000512;28;20033;-54
2022/04/27 00:05:29;;;;;;;86.53;11.95;;;;;;;9.72;100.00;98214.75;5001359;28;20034;-54
2022/04/27 00:07:55;;;;;;;82.63;12.40;;;;;;;9.69;100.00;98225.31;5000270;28;20057;-57
2022/04/27 00:10:20;;;;;;;63.90;11.23;;;;;;;9.56;100.00;98219.66;5002117;28;20703;-54
2022/04/27 00:12:47;;;;;;;84.15;12.00;;;;;;;9.53;100.00;98226.72;5001822;28;20026;-54
2022/04/27 00:15:13;;;;;;;66.53;11.55;;;;;;;9.52;100.00;98227.59;5003858;28;20972;-54
2022/04/27 00:17:39;;;;;;;93.28;13.27;;;;;;;9.39;100.00;98230.63;5006144;28;20079;-56
2022/04/27 00:20:07;;;;;;;83.03;11.95;;;;;;;9.48;100.00;98226.00;5003728;28;20519;-54
2022/04/27 00:22:32;;;;;;;69.50;11.75;;;;;;;9.51;100.00;98231.13;5003153;28;20092;-55
2022/04/27 00:25:02;;;;;;;81.22;12.77;;;;;;;9.45;100.00;98235.63;5003505;28;20030;-56
2022/04/27 00:27:28;;;;;;;79.32;13.00;;;;;;;9.50;100.00;98232.03;5005139;28;20404;-56
2022/04/27 00:29:54;;;;;;;86.95;12.38;;;;;;;9.54;100.00;98225.81;5005827;28;20025;-54
2022/04/27 00:32:19;;;;;;;70.30;11.63;;;;;;;9.50;100.00;98232.03;5005189;28;20033;-53
2022/04/27 00:34:45;;;;;;;114.43;13.27;;;;;;;9.60;100.00;98230.81;5006096;28;20022;-58
2022/04/27 00:37:10;;;;;;;63.63;10.98;;;;;;;9.78;100.00;98240.63;5004011;28;20041;-55
2022/04/27 00:39:35;;;;;;;70.63;12.30;;;;;;;9.88;100.00;98235.09;5001262;28;20504;-56
2022/04/27 00:42:15;;;;;;;88.03;12.70;;;;;;;9.67;100.00;98227.13;5005249;28;20736;-55
2022/04/27 00:44:43;;;;;;;69.22;12.00;;;;;;;9.70;100.00;98236.56;5006844;28;20028;-55
2022/04/27 00:47:16;;;;;;;73.18;11.95;;;;;;;9.61;100.00;98232.50;5004273;28;20662;-54
2022/04/27 00:49:52;;;;;;;78.03;12.05;;;;;;;10.14;100.00;98237.63;5002729;28;20616;-55
2022/04/27 00:52:18;;;;;;;76.50;12.55;;;;;;;9.66;100.00;98233.22;5002120;28;20111;-55
2022/04/27 00:54:47;;;;;;;90.63;12.52;;;;;;;9.40;100.00;98240.13;5001329;28;20971;-55
2022/04/27 00:57:12;;;;;;;77.10;8.65;;;;;;;9.92;100.00;98236.69;5003135;28;20116;-54
2022/04/27 00:59:39;;;;;;;86.05;11.82;;;;;;;9.93;100.00;98233.19;5003953;28;20419;-54
2022/04/27 01:02:05;;;;;;;98.22;11.23;;;;;;;9.95;100.00;98239.19;4983608;28;20089;-55
2022/04/27 01:04:33;;;;;;;80.22;12.35;;;;;;;9.58;100.00;98243.06;5007417;28;20088;-55
2022/04/27 01:06:58;;;;;;;76.03;11.90;;;;;;;9.48;100.00;98252.91;5004285;28;20125;-55
2022/04/27 01:09:25;;;;;;;73.13;11.07;;;;;;;9.12;100.00;98255.78;5000788;28;20105;-55
2022/04/27 01:11:51;;;;;;;71.28;7.00;;;;;;;9.81;100.00;98256.16;5003976;28;20041;-55
2022/04/27 01:14:16;;;;;;;89.55;10.63;;;;;;;9.65;100.00;98255.81;5002467;28;20021;-53
2022/04/27 01:16:42;;;;;;;71.03;9.25;;;;;;;9.94;100.00;98253.13;5003835;28;20038;-54
2022/04/27 01:19:07;;;;;;;64.75;9.35;;;;;;;9.77;100.00;98249.31;5005133;28;20610;-56
2022/04/27 01:21:33;;;;;;;63.90;9.88;;;;;;;9.68;100.00;98254.84;5003537;28;20422;-55
2022/04/27 01:23:58;;;;;;;75.30;11.25;;;;;;;9.65;100.00;98254.97;5005476;28;20037;-55
2022/04/27 01:26:24;;;;;;;85.47;9.77;;;;;;;9.60;100.00;98262.06;5001536;28;20079;-56
2022/04/27 01:28:50;;;;;;;72.47;11.68;;;;;;;9.67;100.00;98258.38;5003797;28;20606;-55
2022/04/27 01:31:15;;;;;;;78.50;8.55;;;;;;;9.74;100.00;98259.88;5003671;28;20034;-55
2022/04/27 01:33:41;;;;;;;75.53;10.93;;;;;;;9.62;100.00;98262.88;5002755;28;20038;-56
2022/04/27 01:36:08;;;;;;;67.55;10.40;;;;;;;9.64;100.00;98263.66;5001890;28;20120;-55
2022/04/27 01:38:38;;;;;;;70.65;9.98;;;;;;;9.67;100.00;98266.19;5003660;28;20559;-55
2022/04/27 01:41:04;;;;;;;66.63;10.70;;;;;;;9.38;100.00;98264.53;5004541;28;20137;-55
2022/04/27 01:43:30;;;;;;;75.57;9.68;;;;;;;9.46;100.00;98265.13;5004301;28;20292;-56
2022/04/27 01:45:56;;;;;;;72.25;10.23;;;;;;;9.72;100.00;98266.00;5002878;28;20140;-56
2022/04/27 01:48:23;;;;;;;89.53;11.75;;;;;;;9.50;100.00;98271.06;5004486;28;20068;-54
2022/04/27 01:50:49;;;;;;;72.82;9.05;;;;;;;9.45;100.00;98269.47;5005058;28;20045;-55
2022/04/27 01:55:59;;;;;;;71.20;7.32;;;;;;;10.01;100.00;98267.63;5002661;28;20092;-56
2022/04/27 01:58:25;;;;;;;68.88;8.77;;;;;;;9.90;100.00;98269.75;5000812;28;20526;-56
2022/04/27 02:00:51;;;;;;;67.97;10.40;;;;;;;9.79;100.00;98268.34;4999732;28;20065;-56
2022/04/27 02:03:18;;;;;;;68.78;11.57;;;;;;;9.66;100.00;98267.06;5003586;28;20037;-56
2022/04/27 02:05:47;;;;;;;81.22;11.95;;;;;;;9.42;100.00;98264.38;5002758;28;20038;-55
2022/04/27 02:08:12;;;;;;;72.07;9.95;;;;;;;9.62;100.00;98266.31;5003641;28;20467;-56
2022/04/27 02:10:38;;;;;;;90.03;10.23;;;;;;;9.37;100.00;98261.06;5001781;28;20567;-56
2022/04/27 02:13:04;;;;;;;68.68;8.82;;;;;;;9.70;100.00;98262.63;5005034;28;20055;-54
2022/04/27 02:15:30;;;;;;;66.53;10.80;;;;;;;9.52;100.00;98264.06;4999554;28;20054;-56
2022/04/27 02:17:55;;;;;;;75.00;11.02;;;;;;;9.35;100.00;98268.06;5003766;28;20053;-56
2022/04/27 02:20:23;;;;;;;66.13;8.25;;;;;;;9.47;100.00;98272.03;5001592;28;20091;-56
2022/04/27 02:22:48;;;;;;;74.95;10.48;;;;;;;9.86;100.00;98257.75;5002707;28;20030;-55
2022/04/27 02:25:13;;;;;;;78.90;11.00;;;;;;;9.49;100.00;98264.19;5002196;28;20036;-55
2022/04/27 02:27:39;;;;;;;64.65;10.77;;;;;;;9.31;100.00;98269.06;4999245;28;20026;-55
2022/04/27 02:30:05;;;;;;;77.75;11.48;;;;;;;9.30;100.00;98274.31;5001744;28;20056;-55
2022/04/27 02:32:30;;;;;;;75.82;10.98;;;;;;;9.27;100.00;98264.88;5003069;28;20067;-55
2022/04/27 02:34:56;;;;;;;99.72;11.98;;;;;;;9.21;100.00;98272.88;4999950;28;20168;-56
2022/04/27 02:37:21;;;;;;;59.70;8.98;;;;;;;9.85;100.00;98280.31;5003978;28;20663;-57
2022/04/27 02:39:46;;;;;;;79.50;10.63;;;;;;;9.52;100.00;98279.69;5002789;28;20025;-54
2022/04/27 02:42:12;;;;;;;68.93;10.65;;;;;;;9.28;100.00;98282.16;5001052;28;20506;-55
2022/04/27 02:44:38;;;;;;;82.28;10.35;;;;;;;9.47;100.00;98289.41;5000495;28;20033;-54
2022/04/27 02:47:04;;;;;;;68.88;11.02;;;;;;;9.64;100.00;98280.13;4998636;28;20184;-54
2022/04/27 02:52:13;;;;;;;74.82;8.40;;;;;;;9.57;100.00;98289.06;5001975;28;20316;-55
2022/04/27 02:54:39;;;;;;;63.53;9.18;;;;;;;9.37;100.00;98294.88;5001170;28;20029;-55
2022/04/27 02:57:04;;;;;;;81.88;12.30;;;;;;;9.35;100.00;98299.28;5000838;28;20792;-54
2022/04/27 02:59:30;;;;;;;70.28;10.27;;;;;;;9.34;100.00;98302.81;5003259;28;20381;-55
2022/04/27 03:01:55;;;;;;;82.07;10.98;;;;;;;9.35;100.00;98299.28;5000924;28;20046;-55
2022/04/27 03:04:20;;;;;;;81.55;11.52;;;;;;;9.35;100.00;98304.50;4999481;28;20033;-56
2022/04/27 03:06:45;;;;;;;74.47;11.57;;;;;;;9.26;100.00;98310.88;4998739;28;20040;-55
2022/04/27 03:09:11;;;;;;;85.25;12.45;;;;;;;9.26;100.00;98315.19;5003578;28;20137;-54
2022/04/27 03:11:36;;;;;;;60.25;10.55;;;;;;;9.43;100.00;98312.09;5002631;28;20038;-54
2022/04/27 03:14:02;;;;;;;78.63;11.00;;;;;;;9.24;100.00;98317.00;5001463;28;20521;-55
2022/04/27 03:16:27;;;;;;;68.78;9.18;;;;;;;9.23;100.00;98315.31;5001117;28;20124;-54
2022/04/27 03:18:52;;;;;;;72.18;10.35;;;;;;;9.25;100.00;98316.97;5001759;28;20109;-54
2022/04/27 03:21:18;;;;;;;79.95;9.32;;;;;;;9.38;100.00;98316.59;5003406;28;20045;-54
2022/04/27 03:23:43;;;;;;;53.10;8.75;;;;;;;9.27;100.00;98316.91;5001871;28;20029;-54
2022/04/27 03:26:08;;;;;;;68.50;10.40;;;;;;;9.13;100.00;98317.31;5002167;28;20488;-55
2022/04/27 03:28:34;;;;;;;73.03;6.43;;;;;;;9.82;100.00;98320.38;5002347;28;20045;-54
2022/04/27 03:30:59;;;;;;;75.20;9.90;;;;;;;9.01;100.00;98313.34;5001463;28;20124;-55
2022/04/27 03:33:24;;;;;;;70.43;9.63;;;;;;;9.16;100.00;98329.41;5001288;28;20136;-54
2022/04/27 03:35:50;;;;;;;67.00;9.25;;;;;;;9.22;100.00;98324.00;5000615;28;20570;-58
2022/04/27 03:38:15;;;;;;;69.40;7.20;;;;;;;9.52;100.00;98332.66;5003235;28;20029;-56
2022/04/27 03:40:44;;;;;;;73.63;9.48;;;;;;;9.20;100.00;98331.84;5002135;28;20050;-55
2022/04/27 03:43:09;;;;;;;69.00;8.88;;;;;;;9.13;100.00;98332.09;5000104;28;20030;-54
2022/04/27 03:45:35;;;;;;;75.32;9.85;;;;;;;9.20;100.00;98331.00;4999796;28;20033;-55
2022/04/27 03:48:01;;;;;;;72.70;9.38;;;;;;;8.91;100.00;98329.28;5000076;28;20030;-56
2022/04/27 03:50:26;;;;;;;77.63;9.63;;;;;;;9.03;100.00;98334.13;5004750;28;20091;-55
2022/04/27 03:52:51;;;;;;;68.15;9.60;;;;;;;8.96;100.00;98333.44;5006072;28;20117;-56
2022/04/27 03:55:17;;;;;;;71.35;9.38;;;;;;;8.91;100.00;98335.31;5006233;28;20055;-55
2022/04/27 03:57:42;;;;;;;80.63;9.18;;;;;;;9.16;100.00;98337.22;5005176;28;20017;-55
2022/04/27 04:00:09;;;;;;;69.72;8.82;;;;;;;9.16;100.00;98339.81;5007208;28;20022;-55
2022/04/27 04:02:36;;;;;;;71.78;9.80;;;;;;;8.91;100.00;98345.72;5004753;28;20022;-56
2022/04/27 04:05:03;;;;;;;69.38;7.22;;;;;;;9.20;100.00;98346.63;5005262;28;20030;-56
2022/04/27 04:07:28;;;;;;;76.55;9.77;;;;;;;9.01;100.00;98347.19;5003316;28;20041;-55
2022/04/27 04:09:53;;;;;;;82.80;9.23;;;;;;;9.29;100.00;98351.56;5004215;28;20031;-59
2022/04/27 04:12:19;;;;;;;66.53;9.15;;;;;;;9.09;100.00;98359.13;5004342;28;20042;-54
2022/04/27 04:14:44;;;;;;;78.47;9.20;;;;;;;9.16;100.00;98343.28;5004111;28;20057;-57
2022/04/27 04:17:09;;;;;;;62.35;8.35;;;;;;;9.16;100.00;98340.66;5004025;28;20042;-56
2022/04/27 04:19:35;;;;;;;72.65;8.95;;;;;;;9.19;100.00;98342.31;5004401;28;20045;-56
2022/04/27 04:22:01;;;;;;;73.90;8.63;;;;;;;9.35;100.00;98350.53;5004173;28;20076;-54
2022/04/27 04:24:26;;;;;;;60.90;7.55;;;;;;;9.42;100.00;98358.09;5006487;28;20076;-55
2022/04/27 04:29:37;;;;;;;55.15;6.07;;;;;;;9.47;100.00;98360.56;5001295;28;20099;-54
2022/04/27 04:32:02;;;;;;;67.32;8.93;;;;;;;9.47;100.00;98359.72;5002214;28;20039;-55
2022/04/27 04:34:28;;;;;;;68.22;7.13;;;;;;;9.48;100.00;98364.03;5007264;28;20120;-56
2022/04/27 04:36:53;;;;;;;63.80;9.13;;;;;;;9.02;100.00;98366.22;5004347;28;20049;-55
2022/04/27 04:39:19;;;;;;;71.70;9.48;;;;;;;8.74;100.00;98373.97;5003317;28;20538;-54
2022/04/27 04:41:44;;;;;;;67.15;9.63;;;;;;;8.74;100.00;98394.78;5005285;28;20042;-57
2022/04/27 04:44:09;;;;;;;86.45;12.88;;;;;;;8.82;100.00;98387.59;5003778;28;20029;-54
2022/04/27 04:46:35;;;;;;;72.20;10.65;;;;;;;9.13;100.00;98397.16;5002564;28;20042;-55
2022/04/27 04:49:00;;;;;;;78.03;8.93;;;;;;;9.61;100.00;98393.97;5006918;28;20119;-55
2022/04/27 04:51:25;;;;;;;71.68;10.00;;;;;;;9.22;100.00;98402.09;5001268;28;20467;-55
2022/04/27 04:53:51;;;;;;;65.07;9.00;;;;;;;9.23;100.00;98399.44;5003524;28;20025;-54
2022/04/27 04:56:16;;;;;;;87.00;9.93;;;;;;;9.39;100.00;98399.88;5002912;28;20034;-54
2022/04/27 04:58:42;;;;;;;62.42;9.10;;;;;;;9.49;100.00;98404.78;5003252;28;20026;-54
2022/04/27 05:01:07;;;;;;;73.07;9.48;;;;;;;9.39;100.00;98410.28;5003763;28;20132;-56
2022/04/27 05:03:36;;;;;;;82.25;10.40;;;;;;;9.30;100.00;98415.75;5004882;28;20516;-55
2022/04/27 05:06:02;;;;;;;89.57;11.02;;;;;;;9.05;100.00;98426.84;5003074;28;20152;-54
2022/04/27 05:08:27;;;;;;;86.07;12.02;;;;;;;9.11;100.00;98430.19;5004582;28;20029;-54
2022/04/27 05:10:53;;;;;;;67.80;10.00;;;;;;;9.70;100.00;98430.16;5002793;28;20056;-54
2022/04/27 05:13:19;;;;;;;75.63;10.10;;;;;;;9.42;100.00;98431.00;5003763;28;20083;-55
2022/04/27 05:15:44;;;;;;;75.65;11.07;;;;;;;9.25;100.00;98435.84;5002266;28;20099;-54
2022/04/27 05:18:09;;;;;;;77.90;11.52;;;;;;;9.41;100.00;98439.72;5003708;28;20710;-55
2022/04/27 05:20:37;;;;;;;84.78;9.57;;;;;;;9.76;100.00;98440.41;5003473;28;20061;-55
2022/04/27 05:23:02;;;;;;;64.22;9.45;;;;;;;9.98;100.00;98435.38;5004299;28;20065;-56
2022/04/27 05:25:28;;;;;;;61.75;9.35;;;;;;;11.14;100.00;98428.91;5001059;28;20061;-56
2022/04/27 05:27:53;;;;;;;67.97;9.00;;;;;;;11.23;100.00;98433.78;5004587;28;20025;-56
2022/04/27 05:33:03;;;;;;;71.60;8.05;;;;;;;12.41;100.00;98411.81;5005711;28;20107;-56
2022/04/27 05:35:28;;;;;;;61.70;7.15;;;;;;;12.85;100.00;98417.75;4998555;28;20041;-57
2022/04/27 05:37:54;;;;;;;68.47;7.25;;;;;;;13.59;100.00;98411.00;5004090;28;20073;-56
2022/04/27 05:40:19;;;;;;;77.32;7.50;;;;;;;13.10;100.00;98414.91;5000669;28;20385;-56
2022/04/27 05:42:47;;;;;;;71.35;7.88;;;;;;;14.16;100.00;98409.13;5003252;28;20044;-57
2022/04/27 05:45:14;;;;;;;65.45;6.90;;;;;;;14.51;100.00;98410.94;5003593;28;20033;-56
2022/04/27 05:47:40;;;;;;;65.68;7.35;;;;;;;13.30;100.00;98426.25;5004287;28;20514;-55
2022/04/27 05:50:05;;;;;;;59.30;6.88;;;;;;;14.14;100.00;98428.50;5002345;28;20030;-56
2022/04/27 05:52:45;;;;;;;55.72;7.10;;;;;;;13.84;100.00;98423.78;5003249;28;20089;-56
2022/04/27 05:55:10;;;;;;;70.20;7.10;;;;;;;13.71;100.00;98425.28;4999669;28;20112;-55
2022/04/27 05:57:35;;;;;;;64.30;6.78;;;;;;;13.86;100.00;98432.44;5002851;28;20129;-56
2022/04/27 06:00:01;;;;;;;72.32;7.15;;;;;;;14.44;100.00;98439.25;5002170;28;20141;-56
2022/04/27 06:02:28;;;;;;;62.38;6.70;;;;;;;14.57;100.00;98434.22;5002932;28;20042;-56
2022/04/27 06:04:54;;;;;;;79.35;7.40;;;;;;;14.21;100.00;98432.53;5000406;28;20030;-56
2022/04/27 06:07:19;;;;;;;56.65;7.07;;;;;;;13.61;100.00;98445.84;5002099;28;20038;-55
2022/04/27 06:09:44;;;;;;;73.40;7.25;;;;;;;15.18;100.00;98433.75;5003035;28;20112;-57
2022/04/27 06:12:10;;;;;;;80.30;7.60;;;;;;;16.47;100.00;98440.69;4999339;28;20045;-56
2022/04/27 06:14:36;;;;;;;65.10;6.88;;;;;;;17.34;100.00;98432.03;5003892;28;20022;-56
2022/04/27 06:17:01;;;;;;;66.03;6.60;;;;;;;18.42;100.00;98435.75;5000101;28;20030;-55
2022/04/27 06:19:27;;;;;;;62.60;6.68;;;;;;;16.75;100.00;98440.78;5002095;28;20021;-57
2022/04/27 06:21:52;;;;;;;59.08;6.50;;;;;;;15.86;100.00;98438.00;5000720;28;20065;-56
2022/04/27 06:24:17;;;;;;;68.70;6.60;;;;;;;18.29;100.00;98443.63;5002913;28;20030;-56
2022/04/27 06:26:43;;;;;;;52.05;6.20;;;;;;;18.45;100.00;98441.69;5001001;28;20037;-57
2022/04/27 06:29:09;;;;;;;62.25;6.20;;;;;;;18.97;97.18;98437.34;5001950;28;20068;-56
2022/04/27 06:31:35;;;;;;;44.65;5.85;;;;;;;20.00;93.87;98442.50;5000352;28;20062;-56
2022/04/27 06:34:00;;;;;;;51.65;6.05;;;;;;;20.74;87.15;98437.06;5002221;28;20631;-56
2022/04/27 06:36:25;;;;;;;60.22;6.38;;;;;;;22.08;73.01;98440.72;5001705;28;20129;-56
2022/04/27 06:38:51;;;;;;;59.00;6.18;;;;;;;21.31;72.79;98438.00;5001803;28;20026;-56
2022/04/27 06:41:16;;;;;;;61.85;6.43;;;;;;;20.73;72.76;98441.53;5001275;28;20095;-56
2022/04/27 06:43:42;;;;;;;54.78;6.20;;;;;;;22.55;65.84;98442.28;5002042;28;20040;-57
2022/04/27 06:46:07;;;;;;;64.88;6.70;;;;;;;23.68;63.01;98448.56;5001963;28;20487;-56
2022/04/27 06:48:33;;;;;;;62.63;6.65;;;;;;;23.39;58.96;98448.44;5002418;28;20487;-56
2022/04/27 06:50:58;;;;;;;46.33;5.78;;;;;;;21.80;64.16;98451.88;5002519;28;20046;-58
2022/04/27 06:53:23;;;;;;;50.63;6.15;;;;;;;20.23;73.83;98462.84;5006351;28;20507;-57
2022/04/27 06:55:50;;;;;;;39.63;5.32;;;;;;;20.01;73.74;98457.44;5000199;28;20044;-57
2022/04/27 06:58:15;;;;;;;53.95;6.07;;;;;;;19.87;72.46;98453.16;5002097;28;20037;-56
2022/04/27 07:00:41;;;;;;;63.38;6.68;;;;;;;19.71;70.84;98452.53;5002430;28;20038;-57
2022/04/27 07:03:06;;;;;;;45.35;5.78;;;;;;;20.80;78.08;98452.50;5002157;28;20040;-56
2022/04/27 07:05:31;;;;;;;59.63;6.50;;;;;;;19.11;82.56;98454.88;5002512;28;20030;-56
2022/04/27 07:07:59;;;;;;;62.25;6.70;;;;;;;19.72;83.87;98460.34;4999402;28;20032;-57
2022/04/27 07:10:24;;;;;;;57.10;6.63;;;;;;;19.00;77.04;98468.84;5001596;28;20041;-56
2022/04/27 07:12:50;;;;;;;71.63;7.20;;;;;;;20.22;81.83;98469.13;5003014;28;20037;-55
2022/04/27 07:15:15;;;;;;;47.67;6.47;;;;;;;18.47;100.00;98465.31;4999627;28;20104;-55
2022/04/27 07:17:41;;;;;;;57.10;7.10;;;;;;;16.38;100.00;98471.91;5001837;28;20025;-56
2022/04/27 07:20:07;;;;;;;58.97;6.93;;;;;;;17.58;100.00;98473.66;5002526;28;20025;-56
2022/04/27 07:22:33;;;;;;;63.40;7.03;;;;;;;17.34;100.00;98476.84;5004509;28;20088;-55
2022/04/27 07:24:58;;;;;;;63.53;6.75;;;;;;;18.06;100.00;98471.50;5006097;28;20466;-57
2022/04/27 07:27:23;;;;;;;65.43;7.32;;;;;;;17.25;100.00;98475.59;5004584;28;20042;-56
2022/04/27 07:29:49;;;;;;;63.55;7.53;;;;;;;17.82;100.00;98474.72;5005154;28;20076;-56
2022/04/27 07:32:14;;;;;;;54.13;6.88;;;;;;;18.63;97.40;98475.72;5004545;28;20065;-56
2022/04/27 07:34:39;;;;;;;68.88;7.32;;;;;;;22.39;71.33;98462.16;5005937;28;20033;-56
2022/04/27 07:37:05;;;;;;;52.22;6.82;;;;;;;20.44;84.14;98477.28;5004429;28;20049;-57
2022/04/27 07:39:31;;;;;;;52.20;6.82;;;;;;;21.95;72.91;98477.22;5003434;28;20060;-58
2022/04/27 07:41:57;;;;;;;73.88;7.85;;;;;;;20.59;80.78;98482.28;5004356;28;20074;-56
2022/04/27 07:44:22;;;;;;;56.97;6.93;;;;;;;20.83;79.05;98488.56;5004082;28;20101;-56
2022/04/27 07:46:47;;;;;;;65.03;7.13;;;;;;;21.16;73.85;98479.84;5003762;28;20324;-56
2022/04/27 07:49:20;;;;;;;67.82;7.35;;;;;;;22.26;67.12;98482.75;5007140;28;20034;-56
2022/04/27 07:51:49;;;;;;;49.70;6.82;;;;;;;21.33;66.85;98489.97;5005343;28;20595;-56
2022/04/27 07:54:15;;;;;;;69.35;7.68;;;;;;;22.91;60.37;98486.22;5005055;28;20242;-57
2022/04/27 07:56:40;;;;;;;61.08;7.50;;;;;;;22.84;63.43;98499.19;5004367;28;20092;-57
2022/04/27 07:59:06;;;;;;;62.53;7.78;;;;;;;20.94;60.01;98497.38;5007073;28;20022;-55
2022/04/27 08:01:31;;;;;;;53.63;7.30;;;;;;;22.00;58.87;98496.28;5004551;28;20029;-55
2022/04/27 08:03:57;;;;;;;54.28;7.18;;;;;;;20.69;65.07;98501.03;4996018;28;20096;-55
2022/04/27 08:06:22;;;;;;;63.25;7.80;;;;;;;21.16;64.48;98506.38;5005410;28;20045;-55
2022/04/27 08:08:47;;;;;;;55.70;7.22;;;;;;;21.37;68.44;98515.31;5004713;28;20041;-54
2022/04/27 08:11:13;;;;;;;61.72;7.50;;;;;;;23.51;59.64;98507.78;5005451;28;20104;-56
2022/04/27 08:13:39;;;;;;;50.83;7.07;;;;;;;22.58;57.43;98506.66;5005674;28;20034;-55
2022/04/27 08:16:07;;;;;;;66.03;7.93;;;;;;;22.67;59.70;98513.06;5005835;28;20041;-55
2022/04/27 08:18:34;;;;;;;68.13;7.88;;;;;;;20.32;65.10;98510.81;5005420;28;20096;-56
2022/04/27 08:21:15;;;;;;;53.67;7.40;;;;;;;22.06;58.99;98514.38;5004644;28;20038;-57
2022/04/27 08:23:44;;;;;;;63.80;8.35;;;;;;;21.67;59.99;98521.91;5003932;28;20029;-58
2022/04/27 08:26:10;;;;;;;59.13;8.13;;;;;;;23.28;57.32;98515.06;5006539;28;20119;-58
2022/04/27 08:28:39;;;;;;;52.38;7.10;;;;;;;24.65;51.46;98515.56;5004318;28;20048;-55
2022/04/27 08:31:07;;;;;;;55.40;7.45;;;;;;;23.53;53.20;98519.13;5005424;28;20115;-55
2022/04/27 08:33:33;;;;;;;68.28;8.63;;;;;;;21.35;56.12;98517.22;5003000;28;20034;-55
2022/04/27 08:35:59;;;;;;;58.13;8.48;;;;;;;19.78;67.06;98523.47;5005613;28;20064;-55
2022/04/27 08:38:25;;;;;;;61.25;8.45;;;;;;;21.04;61.19;98532.00;5005269;28;20022;-57
2022/04/27 08:40:50;;;;;;;59.17;8.02;;;;;;;22.95;56.18;98540.00;5005681;28;20045;-56
2022/04/27 08:43:16;;;;;;;49.67;7.28;;;;;;;21.35;62.04;98543.78;5002476;28;20045;-56
2022/04/27 08:45:44;;;;;;;66.47;8.63;;;;;;;23.55;52.31;98538.47;5002430;28;20037;-57
2022/04/27 08:48:11;;;;;;;43.03;6.97;;;;;;;23.36;52.82;98549.00;5006340;28;20022;-56
2022/04/27 08:50:37;;;;;;;61.78;8.68;;;;;;;21.58;56.09;98550.94;4998440;28;20038;-57
2022/04/27 08:53:02;;;;;;;49.00;7.38;;;;;;;22.67;54.13;98552.94;5004960;28;20029;-55
2022/04/27 08:55:28;;;;;;;54.40;7.75;;;;;;;22.35;55.63;98561.72;5007218;28;20033;-55
2022/04/27 08:57:54;;;;;;;60.95;8.20;;;;;;;22.56;54.23;98555.63;4986982;28;20030;-56
2022/04/27 09:00:22;;;;;;;60.35;8.55;;;;;;;20.65;57.09;98554.41;5005108;28;20606;-58
2022/04/27 09:02:48;;;;;;;54.20;8.18;;;;;;;19.93;65.38;98563.88;5007054;28;20033;-56
2022/04/27 09:05:22;;;;;;;57.22;8.80;;;;;;;20.06;64.87;98555.09;5003507;28;20088;-58
2022/04/27 09:07:50;;;;;;;55.00;7.63;;;;;;;23.92;52.91;98556.63;5006772;28;20141;-57
2022/04/27 09:10:18;;;;;;;54.60;8.38;;;;;;;23.57;51.39;98551.66;5006312;28;20076;-57
2022/04/27 09:12:55;;;;;;;55.60;8.50;;;;;;;21.84;52.47;98559.56;5005970;28;20127;-58
2022/04/27 09:15:23;;;;;;;58.55;8.25;;;;;;;23.78;51.30;98559.59;5004742;28;20471;-56
2022/04/27 09:21:03;;;;;;;55.67;8.55;;;;;;;21.90;53.83;98580.31;4973568;28;20049;-56
2022/04/27 09:23:40;;;;;;;52.60;7.93;;;;;;;20.70;58.54;98576.94;4950323;28;20562;-56
2022/04/27 09:26:22;;;;;;;70.65;8.93;;;;;;;19.26;66.16;98567.56;4980007;28;20048;-56
2022/04/27 09:28:48;;;;;;;;;;;;;;;21.97;56.52;98578.03;5004311;28;20562;-57
2022/04/27 09:31:30;;;;;;;63.33;8.65;;;;;;;22.52;52.45;98577.13;5002093;28;19913;-56
2022/04/27 09:33:59;;;;;;;59.92;8.90;;;;;;;21.20;54.03;98568.81;5002019;28;20026;-57
2022/04/27 09:36:25;;;;;;;61.63;8.52;;;;;;;25.10;44.90;98563.88;5000301;28;20041;-58
2022/04/27 09:38:51;;;;;;;56.08;8.43;;;;;;;24.30;48.20;98560.41;5002935;28;20034;-56
2022/04/27 09:41:40;;;;;;;72.18;8.73;;;;;;;22.06;53.48;98570.16;4998840;28;20471;-57
2022/04/27 09:44:05;;;;;;;48.75;7.97;;;;;;;22.54;48.93;98570.88;5002578;28;20045;-57
2022/04/27 09:46:37;;;;;;;46.90;8.18;;;;;;;20.89;52.25;98571.13;5002971;28;20080;-57
2022/04/27 09:49:07;;;;;;;56.33;8.52;;;;;;;20.39;52.30;98570.34;5002468;28;20056;-55
2022/04/27 09:51:33;;;;;;;56.13;7.85;;;;;;;19.84;56.67;98568.03;5002620;28;20045;-57
2022/04/27 09:54:00;;;;;;;56.88;8.30;;;;;;;19.87;57.69;98566.97;5005363;28;20037;-56
2022/04/27 09:56:29;;;;;;;72.78;9.43;;;;;;;20.64;57.06;98565.94;5003884;28;20048;-55
2022/04/27 09:58:56;;;;;;;55.45;8.23;;;;;;;23.50;47.84;98559.31;5005449;28;20033;-57
2022/04/27 10:01:22;;;;;;;71.38;9.07;;;;;;;20.52;54.37;98560.56;5001353;28;20483;-56
2022/04/27 10:03:48;;;;;;;53.72;7.80;;;;;;;21.03;53.32;98559.50;5004591;28;20033;-57
2022/04/27 10:06:15;;;;;;;62.38;7.60;;;;;;;23.82;47.77;98556.59;5001579;28;20042;-58
2022/04/27 10:08:41;;;;;;;65.13;8.40;;;;;;;22.35;45.54;98564.38;5003261;28;20022;-57
2022/04/27 10:11:07;;;;;;;56.42;6.93;;;;;;;22.85;46.19;98556.72;5001147;28;20034;-57
2022/04/27 10:13:33;;;;;;;60.63;6.85;;;;;;;21.26;44.30;98555.09;5001713;28;20029;-56
2022/04/27 10:15:59;;;;;;;57.03;6.50;;;;;;;20.27;45.53;98552.69;5002122;28;20042;-57
2022/04/27 10:18:24;;;;;;;56.10;6.93;;;;;;;19.78;49.36;98547.28;5004798;28;20026;-57
2022/04/27 10:20:51;;;;;;;55.30;6.72;;;;;;;18.77;52.15;98567.31;5000134;28;20712;-56
2022/04/27 10:23:31;;;;;;;50.60;6.80;;;;;;;16.59;56.65;98561.13;5001273;28;20030;-57
2022/04/27 10:26:09;;;;;;;62.42;7.55;;;;;;;18.75;54.24;98553.31;5001459;28;20119;-56
2022/04/27 10:28:59;;;;;;;53.70;7.10;;;;;;;18.44;56.14;98556.19;5000528;28;20030;-58
2022/04/27 10:31:40;;;;;;;74.25;8.50;;;;;;;17.89;57.42;98560.53;5000792;28;20045;-57
2022/04/27 10:34:17;;;;;;;58.60;7.20;;;;;;;18.98;56.98;98550.03;5003792;28;20523;-58
2022/04/27 10:36:43;;;;;;;64.18;7.32;;;;;;;18.09;61.38;98555.81;5001053;28;20045;-57
2022/04/27 10:39:09;;;;;;;61.33;7.30;;;;;;;18.48;63.18;98556.84;5002646;28;20045;-56
2022/04/27 10:41:34;;;;;;;65.88;7.45;;;;;;;17.47;71.06;98559.53;5002713;28;20144;-56
2022/04/27 10:44:00;;;;;;;62.92;7.22;;;;;;;17.38;65.64;98560.09;5002708;28;20029;-58
2022/04/27 10:46:38;;;;;;;57.05;6.97;;;;;;;18.17;61.85;98557.94;5000539;28;20140;-56
2022/04/27 10:49:24;;;;;;;77.07;8.15;;;;;;;16.82;82.12;98561.59;5001921;28;20038;-56
2022/04/27 10:52:03;;;;;;;55.08;6.97;;;;;;;17.12;73.44;98554.56;5001311;28;20120;-56
2022/04/27 10:54:31;;;;;;;58.80;7.38;;;;;;;16.86;71.65;98563.16;5001505;28;20112;-57
2022/04/27 10:57:14;;;;;;;81.68;8.35;;;;;;;16.97;71.11;98555.50;5000960;28;20040;-56
2022/04/27 10:59:47;;;;;;;46.17;6.97;;;;;;;16.44;72.83;98562.00;5003665;28;20021;-57
2022/04/27 11:02:35;;;;;;;54.20;7.18;;;;;;;17.21;70.18;98563.72;5001666;28;20152;-57
2022/04/27 11:05:02;;;;;;;86.57;8.85;;;;;;;16.58;75.78;98569.97;5000981;28;20052;-56
2022/04/27 11:07:35;;;;;;;61.85;7.50;;;;;;;17.14;72.76;98567.66;5001712;28;20176;-57
2022/04/27 11:10:11;;;;;;;74.55;8.15;;;;;;;16.43;78.08;98566.44;4998721;28;20450;-58
2022/04/27 11:12:38;;;;;;;56.83;7.22;;;;;;;16.85;84.32;98569.38;5001717;28;20511;-56
2022/04/27 11:15:06;;;;;;;67.28;7.80;;;;;;;16.72;76.65;98571.81;5002782;28;20713;-55
2022/04/27 11:17:35;;;;;;;59.97;7.43;;;;;;;16.84;75.36;98576.44;5001105;28;20104;-56
2022/04/27 11:20:03;;;;;;;63.08;7.65;;;;;;;17.01;64.46;98569.34;5002722;28;20949;-55
2022/04/27 11:22:37;;;;;;;66.78;7.35;;;;;;;17.37;65.72;98573.34;5000138;28;20049;-55
2022/04/27 11:25:05;;;;;;;65.10;7.35;;;;;;;17.91;60.10;98569.19;5002199;28;20742;-56
2022/04/27 11:27:33;;;;;;;74.70;7.72;;;;;;;17.69;61.63;98572.25;5000828;28;20061;-55
2022/04/27 11:30:00;;;;;;;44.58;6.47;;;;;;;18.16;57.80;98567.66;5001984;28;20030;-55
2022/04/27 11:32:28;;;;;;;76.28;7.60;;;;;;;18.66;56.80;98566.22;5000808;28;20041;-55
2022/04/27 11:34:54;;;;;;;98.43;9.07;;;;;;;18.87;54.72;98568.41;5000139;28;20030;-56